CheckWX is a tool to help pilots better visualize weather data.  It is not intended as a substitute for an official pre-flight weather briefing.

15:12:20 UTC

KNLC METAR
Lemoore NAS (Reeves Field) Airport
Lemoore, California, USA
Current

16 mins ago

KNLC 091456Z 31006KT 10SM CLR 24/08 A2985 RMK AO2 SLP106 RH/36 T02390083 52009
Observed
Jul-9 @ 14:56 UTC
Wind
  • 310° at 6 KTS
Visibility
10 SM
Flight Rules
VFR
Cloud Levels
  • Clear skies
Temperature
24°C / 75°F
Dewpoint
C / 46°F
Humidity
36%
Altimeter
29.85" Hg
Pressure
1010.82 hPa
Previous

1 hour ago

KNLC 091356Z 26004KT 10SM CLR 19/09 A2984 RMK AO2 SLP104 RH/52 T01890089
Observed
Jul-9 @ 13:56 UTC
Wind
  • 260° at 4 KTS
Visibility
10 SM
Flight Rules
VFR
Cloud Levels
  • Clear skies
Temperature
19°C / 66°F
Dewpoint
C / 48°F
Humidity
52%
Altimeter
29.84" Hg
Pressure
1010.52 hPa
Previous

2 hours ago

KNLC 091256Z AUTO 25004KT 10SM CLR 16/08 A2983 RMK AO2 SLP100 T01610078
Observed
Jul-9 @ 12:56 UTC
Wind
  • 250° at 4 KTS
Visibility
10 SM
Flight Rules
VFR
Cloud Levels
  • Clear skies
Temperature
16°C / 61°F
Dewpoint
C / 46°F
Humidity
59%
Altimeter
29.83" Hg
Pressure
1010.12 hPa